createdAt,value
2018-09-20T00:02:14.964Z,18.70
2018-09-20T00:04:43.558Z,18.60
2018-09-20T00:07:12.095Z,18.60
2018-09-20T00:09:40.651Z,18.50
2018-09-20T00:12:09.248Z,18.50
2018-09-20T00:14:37.828Z,18.50
2018-09-20T00:17:06.498Z,18.50
2018-09-20T00:19:35.094Z,18.50
2018-09-20T00:22:03.744Z,18.50
2018-09-20T00:24:32.362Z,18.40
2018-09-20T00:27:00.951Z,18.40
2018-09-20T00:29:29.524Z,18.40
2018-09-20T00:31:58.089Z,18.40
2018-09-20T00:34:26.656Z,18.40
2018-09-20T00:36:55.204Z,18.40
2018-09-20T00:39:23.779Z,18.40
2018-09-20T00:41:52.333Z,18.30
2018-09-20T00:44:20.899Z,18.30
2018-09-20T00:46:49.464Z,18.30
2018-09-20T00:49:18.035Z,18.30
2018-09-20T00:51:46.568Z,18.30
2018-09-20T00:54:15.143Z,18.20
2018-09-20T00:56:43.720Z,18.10
2018-09-20T00:59:12.314Z,18.10
2018-09-20T01:01:40.914Z,18.10
2018-09-20T01:04:09.472Z,18.10
2018-09-20T01:06:38.004Z,18.00
2018-09-20T01:09:08.742Z,18.10
2018-09-20T01:11:37.635Z,18.10
2018-09-20T01:14:06.280Z,18.00
2018-09-20T01:16:34.837Z,18.00
2018-09-20T01:19:03.424Z,17.90
2018-09-20T01:21:32.028Z,17.90
2018-09-20T01:24:00.640Z,17.90
2018-09-20T01:26:29.221Z,17.90
2018-09-20T01:28:57.799Z,17.80
2018-09-20T01:31:26.373Z,17.80
2018-09-20T01:33:54.924Z,17.70
2018-09-20T01:36:23.513Z,17.70
2018-09-20T01:38:52.052Z,17.70
2018-09-20T01:41:20.605Z,17.70
2018-09-20T01:43:49.165Z,17.70
2018-09-20T01:46:17.757Z,17.70
2018-09-20T01:48:46.287Z,17.60
2018-09-20T01:51:14.816Z,17.50
2018-09-20T01:53:43.330Z,17.50
2018-09-20T01:56:15.413Z,17.50
2018-09-20T01:58:45.080Z,17.50
2018-09-20T02:01:13.615Z,17.50
2018-09-20T02:03:42.195Z,17.50
2018-09-20T02:06:10.807Z,17.40
2018-09-20T02:08:39.312Z,17.40
2018-09-20T02:11:07.856Z,17.40
2018-09-20T02:13:36.392Z,17.40
2018-09-20T02:16:04.952Z,17.40
2018-09-20T02:18:33.480Z,17.40
2018-09-20T02:21:01.996Z,17.30
2018-09-20T02:23:30.484Z,17.30
2018-09-20T02:25:58.996Z,17.30
2018-09-20T02:28:27.528Z,17.30
2018-09-20T02:30:56.073Z,17.20
2018-09-20T02:33:24.601Z,17.20
2018-09-20T02:35:53.130Z,17.20
2018-09-20T02:38:21.620Z,17.20
2018-09-20T02:40:50.155Z,17.20
2018-09-20T02:43:18.665Z,17.10
2018-09-20T02:45:47.228Z,17.10
2018-09-20T02:48:15.737Z,17.10
2018-09-20T02:50:44.255Z,17.10
2018-09-20T02:53:12.769Z,17.20
2018-09-20T02:55:41.307Z,17.20
2018-09-20T02:58:09.816Z,17.10
2018-09-20T03:00:38.352Z,17.00
2018-09-20T03:03:06.847Z,17.00
2018-09-20T03:05:35.398Z,16.90
2018-09-20T03:08:03.904Z,16.80
2018-09-20T03:10:33.525Z,16.80
2018-09-20T03:13:02.021Z,16.80
2018-09-20T03:15:30.543Z,16.80
2018-09-20T03:17:59.034Z,16.80
2018-09-20T03:20:27.562Z,16.80
2018-09-20T03:22:56.110Z,16.80
2018-09-20T03:25:24.611Z,16.80
2018-09-20T03:27:53.132Z,16.80
2018-09-20T03:30:21.988Z,16.80
2018-09-20T03:32:50.678Z,16.80
2018-09-20T03:35:19.424Z,16.70
2018-09-20T03:37:48.345Z,16.70
2018-09-20T03:40:17.165Z,16.70
2018-09-20T03:42:46.027Z,16.60
2018-09-20T03:45:14.825Z,16.60
2018-09-20T03:47:43.577Z,16.60
2018-09-20T03:50:12.407Z,16.60
2018-09-20T03:52:41.293Z,16.60
2018-09-20T03:55:10.153Z,16.70
2018-09-20T03:57:38.978Z,16.60
2018-09-20T04:00:07.804Z,16.60
2018-09-20T04:02:36.671Z,16.50
2018-09-20T04:05:05.456Z,16.50
2018-09-20T04:07:34.284Z,16.50
2018-09-20T04:10:03.165Z,16.40
2018-09-20T04:12:32.058Z,16.50
2018-09-20T04:15:00.595Z,16.40
2018-09-20T04:17:29.148Z,16.40
2018-09-20T04:19:57.688Z,16.40
2018-09-20T04:22:26.257Z,16.30
2018-09-20T04:24:54.791Z,16.30
2018-09-20T04:27:23.413Z,16.30
2018-09-20T04:29:51.948Z,16.30
2018-09-20T04:32:20.505Z,16.30
2018-09-20T04:34:49.052Z,16.30
2018-09-20T04:37:17.617Z,16.30
2018-09-20T04:39:46.160Z,16.30
2018-09-20T04:42:14.757Z,16.30
2018-09-20T04:44:43.293Z,16.20
2018-09-20T04:47:11.856Z,16.20
2018-09-20T04:49:40.368Z,16.10
2018-09-20T04:52:08.941Z,16.10
2018-09-20T04:54:37.423Z,16.00
2018-09-20T04:57:07.250Z,16.00
2018-09-20T04:59:36.844Z,16.00
2018-09-20T05:02:05.432Z,15.90
2018-09-20T05:04:34.146Z,15.90
2018-09-20T05:07:02.488Z,15.90
2018-09-20T05:09:31.037Z,15.90
2018-09-20T05:11:59.537Z,15.80
2018-09-20T05:14:28.064Z,15.80
2018-09-20T05:16:56.604Z,15.80
2018-09-20T05:19:25.418Z,15.70
2018-09-20T05:21:54.126Z,15.70
2018-09-20T05:24:22.845Z,15.70
2018-09-20T05:26:51.593Z,15.70
2018-09-20T05:29:20.429Z,15.70
2018-09-20T05:31:49.212Z,15.70
2018-09-20T05:34:18.052Z,15.70
2018-09-20T05:36:46.756Z,15.70
2018-09-20T05:39:15.523Z,15.60
2018-09-20T05:41:44.321Z,15.70
2018-09-20T05:44:13.165Z,15.70
2018-09-20T05:46:42.215Z,15.70
2018-09-20T05:49:10.972Z,15.70
2018-09-20T05:51:39.548Z,15.70
2018-09-20T05:54:08.455Z,15.60
2018-09-20T05:56:36.974Z,15.60
2018-09-20T05:59:05.738Z,15.60
2018-09-20T06:01:34.288Z,15.60
2018-09-20T06:04:02.824Z,15.60
2018-09-20T06:06:31.336Z,15.70
2018-09-20T06:08:59.912Z,15.70
2018-09-20T06:11:28.407Z,15.70
2018-09-20T06:13:56.950Z,15.70
2018-09-20T06:16:25.457Z,15.70
2018-09-20T06:18:53.993Z,15.70
2018-09-20T06:21:22.485Z,15.80
2018-09-20T06:23:51.020Z,15.80
2018-09-20T06:26:19.549Z,15.90
2018-09-20T06:28:48.116Z,15.80
2018-09-20T06:31:16.652Z,15.90
2018-09-20T06:33:45.171Z,15.90
2018-09-20T06:36:13.724Z,16.00
2018-09-20T06:38:42.546Z,16.00
2018-09-20T06:41:11.433Z,16.00
2018-09-20T06:43:40.225Z,16.10
2018-09-20T06:46:09.026Z,16.20
2018-09-20T06:48:37.856Z,16.20
2018-09-20T06:51:06.853Z,16.20
2018-09-20T06:53:35.729Z,16.20
2018-09-20T06:56:04.588Z,16.20
2018-09-20T06:58:33.502Z,16.30
2018-09-20T07:01:02.280Z,16.30
2018-09-20T07:03:30.964Z,16.30
2018-09-20T07:05:59.508Z,16.30
2018-09-20T07:08:28.077Z,16.40
2018-09-20T07:10:56.604Z,16.40
2018-09-20T07:13:25.176Z,16.50
2018-09-20T07:15:53.717Z,16.50
2018-09-20T07:18:22.280Z,16.60
2018-09-20T07:20:50.820Z,16.60
2018-09-20T07:23:19.414Z,16.70
2018-09-20T07:25:48.052Z,16.70
2018-09-20T07:28:16.540Z,16.80
2018-09-20T07:30:45.108Z,16.80
2018-09-20T07:33:13.646Z,16.90
2018-09-20T07:35:42.232Z,16.90
2018-09-20T07:38:10.763Z,17.00
2018-09-20T07:40:39.317Z,17.10
2018-09-20T07:43:07.625Z,17.10
2018-09-20T07:45:36.168Z,17.20
2018-09-20T07:48:04.657Z,17.30
2018-09-20T07:50:33.181Z,17.40
2018-09-20T07:53:01.727Z,17.40
2018-09-20T07:55:30.269Z,17.50
2018-09-20T07:57:58.793Z,17.50
2018-09-20T08:00:27.337Z,17.60
2018-09-20T08:02:55.860Z,17.70
2018-09-20T08:05:24.401Z,17.80
2018-09-20T08:07:52.932Z,17.90
2018-09-20T08:10:21.457Z,17.90
2018-09-20T08:12:50.017Z,18.00
2018-09-20T08:15:18.550Z,18.10
2018-09-20T08:17:47.054Z,18.10
2018-09-20T08:20:27.985Z,18.20
2018-09-20T08:22:56.512Z,18.30
2018-09-20T08:25:25.056Z,18.40
2018-09-20T08:27:53.621Z,18.40
2018-09-20T08:30:22.115Z,18.50
2018-09-20T08:32:50.625Z,18.60
2018-09-20T08:35:19.174Z,18.70
2018-09-20T08:37:48.049Z,18.80
2018-09-20T08:40:27.078Z,18.90
2018-09-20T08:42:55.649Z,18.90
2018-09-20T08:45:24.240Z,19.00
2018-09-20T08:47:52.824Z,19.10
2018-09-20T08:50:21.382Z,19.20
2018-09-20T08:52:49.930Z,19.30
2018-09-20T08:55:18.508Z,19.40
2018-09-20T08:57:55.384Z,19.50
2018-09-20T09:00:24.492Z,19.50
2018-09-20T09:02:53.041Z,19.60
2018-09-20T09:05:21.684Z,19.70
2018-09-20T09:07:50.272Z,19.80
2018-09-20T09:10:18.860Z,19.90
2018-09-20T09:12:47.412Z,20.00
2018-09-20T09:15:15.988Z,20.10
2018-09-20T09:17:44.521Z,20.20
2018-09-20T09:20:13.073Z,20.30
2018-09-20T09:22:41.613Z,20.40
2018-09-20T09:25:10.196Z,20.50
2018-09-20T09:27:38.712Z,20.60
2018-09-20T09:30:07.577Z,20.70
2018-09-20T09:32:36.122Z,20.80
2018-09-20T09:35:04.739Z,21.00
2018-09-20T09:37:33.279Z,21.10
2018-09-20T09:40:01.851Z,21.20
2018-09-20T09:42:30.392Z,21.30
2018-09-20T09:44:58.968Z,21.50
2018-09-20T09:47:27.527Z,21.60
2018-09-20T09:49:56.085Z,21.70
2018-09-20T09:52:24.649Z,21.80
2018-09-20T09:54:53.191Z,22.00
2018-09-20T09:57:21.708Z,22.10
2018-09-20T09:59:50.298Z,22.20
2018-09-20T10:02:18.796Z,22.30
2018-09-20T10:04:47.331Z,22.40
2018-09-20T10:07:15.913Z,22.50
2018-09-20T10:09:44.399Z,22.70
2018-09-20T10:12:12.938Z,22.70
2018-09-20T10:14:41.428Z,22.70
2018-09-20T10:17:09.947Z,22.80
2018-09-20T10:19:38.444Z,22.80
2018-09-20T10:22:07.029Z,22.80
2018-09-20T10:24:35.613Z,22.80
2018-09-20T10:27:04.156Z,22.90
2018-09-20T10:29:32.701Z,23.00
2018-09-20T10:32:01.275Z,23.10
2018-09-20T10:34:29.799Z,23.20
2018-09-20T10:36:58.337Z,23.20
2018-09-20T10:39:26.844Z,23.30
2018-09-20T10:41:55.556Z,23.30
2018-09-20T10:44:25.096Z,23.40
2018-09-20T10:46:53.640Z,23.50
2018-09-20T10:49:22.160Z,23.40
2018-09-20T10:51:50.681Z,23.50
2018-09-20T10:54:19.172Z,23.60
2018-09-20T10:56:47.720Z,23.60
2018-09-20T10:59:16.246Z,23.70
2018-09-20T11:01:45.208Z,23.70
2018-09-20T11:04:13.713Z,23.70
2018-09-20T11:06:42.309Z,23.70
2018-09-20T11:09:11.033Z,23.70
2018-09-20T11:11:44.185Z,23.70
2018-09-20T11:14:12.696Z,23.70
2018-09-20T11:16:41.213Z,23.80
2018-09-20T11:19:09.716Z,23.90
2018-09-20T11:21:38.251Z,23.90
2018-09-20T11:24:06.731Z,24.00
2018-09-20T11:26:35.297Z,24.10
2018-09-20T11:29:03.856Z,24.10
2018-09-20T11:31:32.414Z,24.10
2018-09-20T11:34:00.916Z,24.10
2018-09-20T11:36:29.518Z,24.20
2018-09-20T11:38:58.099Z,24.30
2018-09-20T11:41:26.628Z,24.20
2018-09-20T11:43:55.200Z,24.20
2018-09-20T11:46:23.810Z,24.30
2018-09-20T11:48:52.390Z,24.30
2018-09-20T11:51:21.024Z,24.30
2018-09-20T11:53:49.644Z,24.30
2018-09-20T11:56:18.208Z,24.40
2018-09-20T11:58:46.767Z,24.40
2018-09-20T12:01:15.360Z,24.40
2018-09-20T12:03:44.229Z,24.40
2018-09-20T12:06:12.988Z,24.50
2018-09-20T12:08:41.853Z,24.50
2018-09-20T12:11:10.784Z,24.60
2018-09-20T12:13:39.688Z,24.70
2018-09-20T12:16:08.492Z,24.80
2018-09-20T12:18:37.095Z,24.80
2018-09-20T12:21:05.840Z,24.70
2018-09-20T12:23:34.634Z,24.70
2018-09-20T12:26:03.565Z,24.80
2018-09-20T12:28:32.367Z,24.90
2018-09-20T12:31:01.198Z,25.00
2018-09-20T12:33:30.078Z,25.00
2018-09-20T12:35:58.880Z,25.00
2018-09-20T12:38:27.671Z,25.10
2018-09-20T12:40:56.452Z,25.10
2018-09-20T12:43:25.313Z,25.10
2018-09-20T12:45:54.116Z,25.10
2018-09-20T12:48:23.243Z,25.10
2018-09-20T12:50:51.894Z,25.10
2018-09-20T12:53:27.337Z,25.20
2018-09-20T12:55:56.129Z,25.20
2018-09-20T12:58:30.164Z,25.20
2018-09-20T13:00:58.933Z,25.30
2018-09-20T13:03:27.696Z,25.30
2018-09-20T13:05:56.536Z,25.20
2018-09-20T13:08:25.357Z,25.10
2018-09-20T13:10:54.108Z,25.10
2018-09-20T13:13:22.941Z,25.20
2018-09-20T13:15:51.794Z,25.30
2018-09-20T13:18:20.633Z,25.30
2018-09-20T13:20:49.417Z,25.20
2018-09-20T13:23:18.219Z,25.20
2018-09-20T13:25:47.009Z,25.30
2018-09-20T13:28:15.842Z,25.40
2018-09-20T13:30:44.633Z,25.40
2018-09-20T13:33:13.367Z,25.60
2018-09-20T13:35:42.238Z,25.70
2018-09-20T13:38:11.017Z,25.80
2018-09-20T13:40:39.778Z,25.70
2018-09-20T13:43:08.665Z,25.80
2018-09-20T13:45:37.455Z,25.80
2018-09-20T13:48:06.330Z,25.90
2018-09-20T13:50:35.155Z,25.90
2018-09-20T13:53:04.040Z,25.90
2018-09-20T13:55:32.776Z,26.00
2018-09-20T13:58:01.569Z,26.00
2018-09-20T14:00:30.348Z,26.10
2018-09-20T14:02:59.171Z,26.10
2018-09-20T14:05:28.003Z,26.20
2018-09-20T14:07:56.854Z,26.30
2018-09-20T14:10:25.641Z,26.30
2018-09-20T14:12:54.395Z,26.50
2018-09-20T14:15:23.211Z,26.50
2018-09-20T14:17:51.991Z,26.60
2018-09-20T14:20:20.757Z,26.60
2018-09-20T14:22:49.581Z,26.70
2018-09-20T14:25:18.229Z,26.80
2018-09-20T14:27:46.971Z,26.90
2018-09-20T14:30:15.917Z,27.00
2018-09-20T14:32:44.595Z,27.10
2018-09-20T14:35:13.188Z,27.20
2018-09-20T14:37:41.689Z,27.20
2018-09-20T14:40:10.329Z,27.20
2018-09-20T14:42:38.871Z,27.20
2018-09-20T14:45:07.417Z,27.30
2018-09-20T14:47:35.963Z,27.40
2018-09-20T14:50:04.701Z,27.40
2018-09-20T14:52:33.223Z,27.30
2018-09-20T14:55:01.774Z,27.20
2018-09-20T14:57:31.275Z,27.20
2018-09-20T14:59:59.916Z,27.20
2018-09-20T15:02:28.489Z,27.30
2018-09-20T15:04:57.005Z,27.40
2018-09-20T15:07:25.564Z,27.50
2018-09-20T15:09:54.125Z,27.50
2018-09-20T15:12:22.636Z,27.60
2018-09-20T15:14:51.284Z,27.50
2018-09-20T15:17:19.844Z,27.60
2018-09-20T15:19:48.383Z,27.50
2018-09-20T15:22:16.946Z,27.60
2018-09-20T15:24:45.480Z,27.50
2018-09-20T15:27:13.996Z,27.50
2018-09-20T15:29:42.513Z,27.60
2018-09-20T15:32:11.065Z,27.60
2018-09-20T15:34:39.910Z,27.60
2018-09-20T15:37:09.936Z,27.60
2018-09-20T15:39:38.491Z,27.70
2018-09-20T15:42:07.092Z,27.80
2018-09-20T15:44:35.719Z,27.80
2018-09-20T15:47:04.300Z,27.80
2018-09-20T15:49:32.856Z,27.80
2018-09-20T15:52:01.409Z,27.90
2018-09-20T15:54:30.017Z,27.90
2018-09-20T15:56:59.366Z,28.00
2018-09-20T15:59:28.894Z,28.00
2018-09-20T16:01:58.294Z,28.00
2018-09-20T16:04:27.197Z,28.10
2018-09-20T16:06:56.011Z,28.10
2018-09-20T16:09:24.837Z,28.10
2018-09-20T16:11:53.583Z,28.10
2018-09-20T16:14:22.420Z,27.90
2018-09-20T16:16:51.124Z,27.90
2018-09-20T16:19:19.925Z,27.90
2018-09-20T16:21:49.089Z,28.00
2018-09-20T16:24:17.781Z,27.90
2018-09-20T16:26:46.344Z,27.90
2018-09-20T16:29:23.413Z,27.90
2018-09-20T16:34:05.427Z,27.80
2018-09-20T16:36:48.193Z,27.80
2018-09-20T16:39:22.563Z,27.60
2018-09-20T16:41:53.077Z,27.40
2018-09-20T16:44:21.682Z,27.20
2018-09-20T16:46:50.266Z,27.00
2018-09-20T16:49:18.848Z,26.80
2018-09-20T16:51:47.415Z,26.60
2018-09-20T16:54:16.011Z,26.40
2018-09-20T16:56:44.585Z,26.00
2018-09-20T16:59:13.149Z,25.70
2018-09-20T17:01:41.985Z,25.40
2018-09-20T17:04:10.883Z,25.20
2018-09-20T17:06:39.729Z,25.00
2018-09-20T17:09:16.798Z,24.80
2018-09-20T17:11:45.768Z,24.60
2018-09-20T17:14:14.589Z,24.50
2018-09-20T17:16:43.552Z,24.50
2018-09-20T17:19:45.484Z,24.50
2018-09-20T17:22:14.097Z,24.30
2018-09-20T17:24:42.658Z,24.30
2018-09-20T17:27:11.396Z,24.20
2018-09-20T17:29:39.965Z,24.10
2018-09-20T17:32:08.502Z,24.10
2018-09-20T17:34:37.205Z,23.90
2018-09-20T17:37:06.243Z,23.90
2018-09-20T17:39:35.544Z,23.80
2018-09-20T17:42:04.380Z,23.80
2018-09-20T17:44:33.173Z,23.80
2018-09-20T17:47:01.950Z,23.70
2018-09-20T17:49:30.909Z,23.70
2018-09-20T17:52:00.131Z,23.60
2018-09-20T17:54:29.395Z,23.60
2018-09-20T17:56:58.392Z,23.50
2018-09-20T17:59:26.955Z,23.40
2018-09-20T18:01:55.516Z,23.20
2018-09-20T18:04:24.081Z,23.20
2018-09-20T18:06:52.623Z,23.10
2018-09-20T18:09:21.237Z,23.00
2018-09-20T18:11:49.778Z,22.90
2018-09-20T18:14:18.348Z,22.80
2018-09-20T18:16:46.886Z,22.70
2018-09-20T18:19:15.433Z,22.60
2018-09-20T18:21:43.991Z,22.60
2018-09-20T18:24:12.533Z,22.50
2018-09-20T18:26:41.105Z,22.40
2018-09-20T18:29:09.651Z,22.40
2018-09-20T18:31:38.211Z,22.30
2018-09-20T18:34:06.834Z,22.30
2018-09-20T18:36:35.358Z,22.20
2018-09-20T18:39:04.941Z,22.20
2018-09-20T18:41:33.546Z,22.10
2018-09-20T18:44:02.093Z,22.10
2018-09-20T18:46:30.661Z,21.90
2018-09-20T18:48:59.184Z,21.80
2018-09-20T18:51:27.724Z,21.70
2018-09-20T18:53:56.231Z,21.60
2018-09-20T18:56:24.764Z,21.40
2018-09-20T18:58:53.282Z,21.20
2018-09-20T19:01:21.809Z,21.20
2018-09-20T19:03:50.320Z,21.20
2018-09-20T19:06:18.859Z,21.20
2018-09-20T19:08:47.353Z,21.10
2018-09-20T19:11:15.906Z,21.10
2018-09-20T19:13:44.408Z,21.10
2018-09-20T19:16:12.940Z,21.10
2018-09-20T19:18:41.443Z,21.00
2018-09-20T19:21:10.032Z,20.90
2018-09-20T19:23:38.543Z,20.90
2018-09-20T19:26:07.102Z,20.80
2018-09-20T19:28:35.604Z,20.70
2018-09-20T19:31:04.151Z,20.60
2018-09-20T19:33:32.650Z,20.60
2018-09-20T19:36:01.187Z,20.60
2018-09-20T19:38:29.699Z,20.60
2018-09-20T19:40:58.239Z,20.60
2018-09-20T19:43:26.788Z,20.50
2018-09-20T19:45:55.309Z,20.40
2018-09-20T19:48:23.898Z,20.40
2018-09-20T19:50:52.458Z,20.30
2018-09-20T19:53:21.024Z,20.30
2018-09-20T19:55:49.599Z,20.20
2018-09-20T19:58:18.180Z,20.20
2018-09-20T20:00:46.749Z,20.20
2018-09-20T20:03:15.578Z,20.20
2018-09-20T20:05:44.107Z,20.10
2018-09-20T20:08:12.964Z,20.10
2018-09-20T20:10:41.499Z,20.10
2018-09-20T20:13:10.080Z,20.00
2018-09-20T20:15:38.891Z,20.00
2018-09-20T20:18:07.470Z,19.90
2018-09-20T20:20:36.012Z,19.90
2018-09-20T20:23:04.621Z,19.90
2018-09-20T20:25:33.156Z,19.90
2018-09-20T20:28:01.712Z,19.90
2018-09-20T20:30:30.247Z,19.90
2018-09-20T20:32:58.817Z,19.90
2018-09-20T20:35:27.359Z,19.90
2018-09-20T20:37:55.932Z,19.80
2018-09-20T20:40:24.473Z,19.80
2018-09-20T20:42:53.051Z,19.70
2018-09-20T20:45:21.601Z,19.60
2018-09-20T20:47:50.196Z,19.60
2018-09-20T20:50:18.728Z,19.60
2018-09-20T20:52:47.296Z,19.50
2018-09-20T20:55:15.829Z,19.50
2018-09-20T20:57:44.404Z,19.50
2018-09-20T21:00:12.948Z,19.50
2018-09-20T21:02:41.508Z,19.40
2018-09-20T21:05:10.048Z,19.40
2018-09-20T21:07:38.625Z,19.40
2018-09-20T21:10:07.242Z,19.30
2018-09-20T21:12:35.816Z,19.30
2018-09-20T21:15:04.440Z,19.30
2018-09-20T21:17:33.070Z,19.20
2018-09-20T21:20:01.622Z,19.20
2018-09-20T21:22:30.192Z,19.20
2018-09-20T21:24:58.737Z,19.10
2018-09-20T21:27:27.312Z,19.10
2018-09-20T21:29:55.849Z,19.00
2018-09-20T21:32:24.408Z,19.00
2018-09-20T21:34:52.942Z,18.90
2018-09-20T21:37:21.500Z,18.80
2018-09-20T21:39:50.089Z,18.80
2018-09-20T21:42:18.646Z,18.80
2018-09-20T21:44:47.195Z,18.80
2018-09-20T21:47:16.001Z,18.80
2018-09-20T21:49:44.549Z,18.80
2018-09-20T21:52:13.073Z,18.80
2018-09-20T21:54:41.638Z,18.80
2018-09-20T21:57:10.144Z,18.70
2018-09-20T21:59:38.680Z,18.70
2018-09-20T22:02:07.399Z,18.60
2018-09-20T22:04:35.924Z,18.60
2018-09-20T22:07:04.443Z,18.60
2018-09-20T22:09:32.967Z,18.60
2018-09-20T22:12:01.477Z,18.60
2018-09-20T22:14:30.001Z,18.60
2018-09-20T22:16:58.573Z,18.60
2018-09-20T22:19:27.108Z,18.50
2018-09-20T22:21:55.747Z,18.50
2018-09-20T22:24:24.284Z,18.50
2018-09-20T22:26:52.780Z,18.50
2018-09-20T22:29:21.328Z,18.50
2018-09-20T22:31:49.827Z,18.50
2018-09-20T22:34:18.356Z,18.40
2018-09-20T22:36:46.859Z,18.40
2018-09-20T22:39:15.401Z,18.40
2018-09-20T22:41:43.905Z,18.30
2018-09-20T22:44:12.445Z,18.30
2018-09-20T22:46:40.990Z,18.30
2018-09-20T22:49:09.565Z,18.30
2018-09-20T22:51:38.080Z,18.20
2018-09-20T22:54:06.650Z,18.20
2018-09-20T22:56:35.147Z,18.20
2018-09-20T22:59:03.708Z,18.10
2018-09-20T23:01:32.213Z,18.10
2018-09-20T23:04:00.756Z,18.10
2018-09-20T23:06:29.281Z,18.10
2018-09-20T23:08:57.808Z,18.10
2018-09-20T23:11:26.325Z,18.00
2018-09-20T23:13:54.893Z,18.00
2018-09-20T23:16:23.426Z,18.00
2018-09-20T23:18:51.996Z,18.00
2018-09-20T23:21:20.554Z,18.00
2018-09-20T23:23:49.108Z,18.00
2018-09-20T23:26:17.959Z,18.00
2018-09-20T23:28:46.549Z,17.90
2018-09-20T23:31:15.104Z,18.00
2018-09-20T23:33:43.665Z,18.00
2018-09-20T23:36:12.196Z,18.00
2018-09-20T23:38:40.794Z,17.90
2018-09-20T23:41:09.365Z,17.90
2018-09-20T23:43:37.941Z,17.80
2018-09-20T23:46:06.569Z,17.60
2018-09-20T23:48:35.204Z,17.60
2018-09-20T23:51:03.809Z,17.60
2018-09-20T23:53:32.340Z,17.60
2018-09-20T23:56:00.912Z,17.60
2018-09-20T23:58:29.443Z,17.60
